createdAt,value
2018-11-21T00:02:19.492Z,11.73
2018-11-21T00:04:47.553Z,12.30
2018-11-21T00:07:15.481Z,11.00
2018-11-21T00:09:43.428Z,11.27
2018-11-21T00:12:11.691Z,11.67
2018-11-21T00:14:39.964Z,10.57
2018-11-21T00:17:07.902Z,10.73
2018-11-21T00:19:35.856Z,11.83
2018-11-21T00:22:03.810Z,11.87
2018-11-21T00:24:32.144Z,12.03
2018-11-21T00:27:00.359Z,11.73
2018-11-21T00:29:28.593Z,11.57
2018-11-21T00:31:56.869Z,10.90
2018-11-21T00:34:25.066Z,11.30
2018-11-21T00:36:53.370Z,12.07
2018-11-21T00:39:21.996Z,12.07
2018-11-21T00:41:49.991Z,11.47
2018-11-21T00:44:18.273Z,11.97
2018-11-21T00:46:46.605Z,11.00
2018-11-21T00:49:14.521Z,11.20
2018-11-21T00:51:42.765Z,12.03
2018-11-21T00:54:11.068Z,12.70
2018-11-21T00:56:38.986Z,11.60
2018-11-21T00:59:06.918Z,12.00
2018-11-21T01:01:35.202Z,11.57
2018-11-21T01:04:03.117Z,11.70
2018-11-21T01:06:31.390Z,11.17
2018-11-21T01:08:59.589Z,11.57
2018-11-21T01:11:27.549Z,11.03
2018-11-21T01:13:56.264Z,11.80
2018-11-21T01:16:24.460Z,11.50
2018-11-21T01:18:52.732Z,11.73
2018-11-21T01:21:20.955Z,11.27
2018-11-21T01:23:48.855Z,12.43
2018-11-21T01:26:17.123Z,11.90
2018-11-21T01:28:45.404Z,12.30
2018-11-21T01:31:13.633Z,12.10
2018-11-21T01:33:42.208Z,12.73
2018-11-21T01:36:10.112Z,11.70
2018-11-21T01:38:38.391Z,12.33
2018-11-21T01:41:06.311Z,12.83
2018-11-21T01:43:34.641Z,12.63
2018-11-21T01:46:02.584Z,12.43
2018-11-21T01:48:30.836Z,13.23
2018-11-21T01:50:58.795Z,12.93
2018-11-21T01:53:27.408Z,12.40
2018-11-21T01:55:55.326Z,13.50
2018-11-21T01:58:23.262Z,12.70
2018-11-21T02:00:51.524Z,13.10
2018-11-21T02:03:19.460Z,12.83
2018-11-21T02:05:47.399Z,14.17
2018-11-21T02:08:15.348Z,13.10
2018-11-21T02:10:43.290Z,12.90
2018-11-21T02:13:11.564Z,12.27
2018-11-21T02:15:39.502Z,13.20
2018-11-21T02:18:08.100Z,13.80
2018-11-21T02:20:36.108Z,13.40
2018-11-21T02:23:04.673Z,13.37
2018-11-21T02:25:33.024Z,13.47
2018-11-21T02:28:01.020Z,13.33
2018-11-21T02:30:28.994Z,13.73
2018-11-21T02:32:56.968Z,13.50
2018-11-21T02:35:24.941Z,13.67
2018-11-21T02:37:52.874Z,13.87
2018-11-21T02:40:20.844Z,14.20
2018-11-21T02:42:49.143Z,13.73
2018-11-21T02:45:17.081Z,14.30
2018-11-21T02:47:45.342Z,14.20
2018-11-21T02:50:13.549Z,13.80
2018-11-21T02:52:41.456Z,14.17
2018-11-21T02:55:09.666Z,14.53
2018-11-21T02:57:37.610Z,13.87
2018-11-21T03:00:13.964Z,14.03
2018-11-21T03:02:42.223Z,13.80
2018-11-21T03:05:10.420Z,13.77
2018-11-21T03:07:57.839Z,14.97
2018-11-21T03:10:26.657Z,14.27
2018-11-21T03:12:54.802Z,14.37
2018-11-21T03:15:23.045Z,14.10
2018-11-21T03:18:10.088Z,13.80
2018-11-21T03:20:38.624Z,14.70
2018-11-21T03:23:25.676Z,14.07
2018-11-21T03:25:53.588Z,14.10
2018-11-21T03:28:41.108Z,14.67
2018-11-21T03:31:08.988Z,14.47
2018-11-21T03:33:37.222Z,14.43
2018-11-21T03:36:24.301Z,15.00
2018-11-21T03:38:52.234Z,14.07
2018-11-21T03:41:20.135Z,14.43
2018-11-21T03:43:48.027Z,14.27
2018-11-21T03:46:35.430Z,14.47
2018-11-21T03:49:03.682Z,14.40
2018-11-21T03:51:51.034Z,14.70
2018-11-21T03:54:19.277Z,13.73
2018-11-21T03:57:06.363Z,13.63
2018-11-21T03:59:34.587Z,16.03
2018-11-21T04:02:21.651Z,15.63
2018-11-21T04:05:08.720Z,14.97
2018-11-21T04:07:36.844Z,14.50
2018-11-21T04:10:07.938Z,14.40
2018-11-21T04:12:35.899Z,14.07
2018-11-21T04:15:23.545Z,14.37
2018-11-21T04:17:51.799Z,13.90
2018-11-21T04:20:39.136Z,13.80
2018-11-21T04:23:26.189Z,14.37
2018-11-21T04:26:13.538Z,13.20
2018-11-21T04:28:41.740Z,17.53
2018-11-21T04:31:09.934Z,14.77
2018-11-21T04:33:57.002Z,14.57
2018-11-21T04:36:44.080Z,13.50
2018-11-21T04:39:12.673Z,13.37
2018-11-21T04:41:59.743Z,13.90
2018-11-21T04:44:27.664Z,14.93
2018-11-21T04:47:15.044Z,13.70
2018-11-21T04:49:42.973Z,13.80
2018-11-21T04:52:11.238Z,13.97
2018-11-21T04:54:58.618Z,14.43
2018-11-21T04:57:45.988Z,14.00
2018-11-21T05:00:33.103Z,13.77
2018-11-21T05:03:20.501Z,14.00
2018-11-21T05:05:48.722Z,14.93
2018-11-21T05:08:16.652Z,13.50
2018-11-21T05:10:44.587Z,14.77
2018-11-21T05:13:31.668Z,14.63
2018-11-21T05:16:00.226Z,15.47
2018-11-21T05:18:47.291Z,15.07
2018-11-21T05:21:34.739Z,16.37
2018-11-21T05:24:22.088Z,14.43
2018-11-21T05:26:50.311Z,15.43
2018-11-21T05:29:18.247Z,15.73
2018-11-21T05:32:05.317Z,14.77
2018-11-21T05:34:33.628Z,15.77
2018-11-21T05:37:21.003Z,15.57
2018-11-21T05:39:48.928Z,15.67
2018-11-21T05:42:36.316Z,14.90
2018-11-21T05:45:04.798Z,16.30
2018-11-21T05:47:51.912Z,16.73
2018-11-21T05:50:19.843Z,16.37
2018-11-21T05:53:06.977Z,16.80
2018-11-21T05:55:54.033Z,15.20
2018-11-21T05:58:21.960Z,14.90
2018-11-21T06:00:49.861Z,15.47
2018-11-21T06:03:17.783Z,15.37
2018-11-21T06:06:09.942Z,15.50
2018-11-21T06:08:32.763Z,15.10
2018-11-21T06:11:19.848Z,16.17
2018-11-21T06:13:47.744Z,15.83
2018-11-21T06:16:15.974Z,16.03
2018-11-21T06:19:03.375Z,15.40
2018-11-21T06:21:31.858Z,14.43
2018-11-21T06:24:18.922Z,15.60
2018-11-21T06:27:11.250Z,16.20
2018-11-21T06:29:58.606Z,15.60
2018-11-21T06:32:45.659Z,16.23
2018-11-21T06:35:14.047Z,16.47
2018-11-21T06:37:41.959Z,17.10
2018-11-21T06:40:12.351Z,16.37
2018-11-21T06:42:40.906Z,17.07
2018-11-21T06:45:09.606Z,16.57
2018-11-21T06:47:37.535Z,16.70
2018-11-21T06:50:06.119Z,16.87
2018-11-21T06:52:34.019Z,17.33
2018-11-21T06:55:01.930Z,16.67
2018-11-21T06:57:30.473Z,18.17
2018-11-21T06:59:58.728Z,16.73
2018-11-21T07:02:26.647Z,17.53
2018-11-21T07:05:14.018Z,17.30
2018-11-21T07:07:42.498Z,16.50
2018-11-21T07:10:29.895Z,17.00
2018-11-21T07:12:58.455Z,15.43
2018-11-21T07:15:26.362Z,16.70
2018-11-21T07:17:54.268Z,17.83
2018-11-21T07:20:22.617Z,17.53
2018-11-21T07:22:50.575Z,17.40
2018-11-21T07:25:20.300Z,17.10
2018-11-21T07:27:48.252Z,17.07
2018-11-21T07:30:16.874Z,17.73
2018-11-21T07:32:45.129Z,17.27
2018-11-21T07:35:17.816Z,17.30
2018-11-21T07:37:42.287Z,16.57
2018-11-21T07:40:11.971Z,16.57
2018-11-21T07:42:40.332Z,15.97
2018-11-21T07:45:09.820Z,16.07
2018-11-21T07:47:38.876Z,16.50
2018-11-21T07:50:09.579Z,16.47
2018-11-21T07:52:37.493Z,16.57
2018-11-21T07:55:05.938Z,15.53
2018-11-21T07:57:35.358Z,16.73
2018-11-21T08:01:01.317Z,16.87
2018-11-21T08:03:48.390Z,15.50
2018-11-21T08:06:19.010Z,16.27
2018-11-21T08:09:06.090Z,15.93
2018-11-21T08:11:53.506Z,16.23
2018-11-21T08:14:40.574Z,15.63
2018-11-21T08:17:27.678Z,15.53
2018-11-21T08:20:14.733Z,15.90
2018-11-21T08:22:54.471Z,15.83
2018-11-21T08:25:38.317Z,16.00
2018-11-21T08:28:25.373Z,15.57
2018-11-21T08:30:53.631Z,16.60
2018-11-21T08:33:21.535Z,16.50
2018-11-21T08:35:49.789Z,15.30
2018-11-21T08:38:17.776Z,14.97
2018-11-21T08:40:45.987Z,14.80
2018-11-21T08:43:14.193Z,15.83
2018-11-21T08:46:01.259Z,15.27
2018-11-21T08:48:29.162Z,15.60
2018-11-21T08:50:57.047Z,15.17
2018-11-21T08:53:44.124Z,14.53
2018-11-21T08:56:12.023Z,15.03
2018-11-21T08:58:40.308Z,15.50
2018-11-21T09:01:08.558Z,15.70
2018-11-21T09:03:36.528Z,15.70
2018-11-21T09:06:04.768Z,15.57
2018-11-21T09:08:32.695Z,15.87
2018-11-21T09:11:00.639Z,15.07
2018-11-21T09:13:28.572Z,15.30
2018-11-21T09:15:56.524Z,15.50
2018-11-21T09:18:24.525Z,15.53
2018-11-21T09:20:52.427Z,15.33
2018-11-21T09:23:20.369Z,15.17
2018-11-21T09:25:48.272Z,15.50
2018-11-21T09:28:16.529Z,15.93
2018-11-21T09:30:44.507Z,16.53
2018-11-21T09:33:12.420Z,15.37
2018-11-21T09:35:40.368Z,15.93
2018-11-21T09:38:08.325Z,15.80
2018-11-21T09:40:36.681Z,15.60
2018-11-21T09:43:04.924Z,14.87
2018-11-21T09:45:33.141Z,14.97
2018-11-21T09:48:01.110Z,14.97
2018-11-21T09:50:30.551Z,15.60
2018-11-21T09:52:58.831Z,16.23
2018-11-21T09:55:26.786Z,15.43
2018-11-21T09:57:55.079Z,15.30
2018-11-21T10:00:59.697Z,16.30
2018-11-21T10:03:29.174Z,15.47
2018-11-21T10:06:08.913Z,14.90
2018-11-21T10:08:50.713Z,15.47
2018-11-21T10:11:18.973Z,15.67
2018-11-21T10:13:46.891Z,15.10
2018-11-21T10:16:15.138Z,15.63
2018-11-21T10:18:44.715Z,16.10
2018-11-21T10:21:14.311Z,15.33
2018-11-21T10:23:42.289Z,15.33
2018-11-21T10:26:10.224Z,14.57
2018-11-21T10:28:38.528Z,15.80
2018-11-21T10:31:07.337Z,15.30
2018-11-21T10:33:35.289Z,15.00
2018-11-21T10:36:03.620Z,14.90
2018-11-21T10:38:31.538Z,15.47
2018-11-21T10:40:59.906Z,15.60
2018-11-21T10:43:28.453Z,15.30
2018-11-21T10:45:55.784Z,15.57
2018-11-21T10:48:23.726Z,15.23
2018-11-21T10:50:51.631Z,15.90
2018-11-21T10:53:19.646Z,15.97
2018-11-21T10:55:47.583Z,14.83
2018-11-21T10:58:15.497Z,15.27
2018-11-21T11:01:01.187Z,13.87
2018-11-21T11:03:34.456Z,15.07
2018-11-21T11:06:16.331Z,15.03
2018-11-21T11:09:02.002Z,14.90
2018-11-21T11:11:55.339Z,14.73
2018-11-21T11:14:51.238Z,14.13
2018-11-21T11:17:36.876Z,14.20
2018-11-21T11:20:19.828Z,13.57
2018-11-21T11:23:05.849Z,13.53
2018-11-21T11:25:48.658Z,13.60
2018-11-21T11:28:34.295Z,13.30
2018-11-21T11:31:19.807Z,13.60
2018-11-21T11:34:05.613Z,13.77
2018-11-21T11:37:01.920Z,13.77
2018-11-21T11:39:43.931Z,12.93
2018-11-21T11:42:43.024Z,14.13
2018-11-21T11:45:32.959Z,13.10
2018-11-21T11:48:19.616Z,13.20
2018-11-21T11:51:06.697Z,13.37
2018-11-21T11:53:52.487Z,13.47
2018-11-21T11:56:29.822Z,13.93
2018-11-21T11:59:15.311Z,13.83
2018-11-21T12:02:13.365Z,14.17
2018-11-21T12:05:16.797Z,13.27
2018-11-21T12:08:04.282Z,14.50
2018-11-21T12:10:57.498Z,14.47
2018-11-21T12:13:47.344Z,13.97
2018-11-21T12:16:33.128Z,13.97
2018-11-21T12:19:18.791Z,13.23
2018-11-21T12:22:05.893Z,13.43
2018-11-21T12:24:51.158Z,13.80
2018-11-21T12:27:42.492Z,13.70
2018-11-21T12:30:32.201Z,13.70
2018-11-21T12:33:17.795Z,13.67
2018-11-21T12:36:19.804Z,14.23
2018-11-21T12:39:09.469Z,14.33
2018-11-21T12:41:55.052Z,13.77
2018-11-21T12:44:40.900Z,14.27
2018-11-21T12:47:36.747Z,14.17
2018-11-21T12:50:23.807Z,13.90
2018-11-21T12:53:16.606Z,12.93
2018-11-21T12:56:09.514Z,14.27
2018-11-21T12:59:14.841Z,14.20
2018-11-21T13:02:07.687Z,13.87
2018-11-21T13:04:56.944Z,14.17
2018-11-21T13:07:42.882Z,15.07
2018-11-21T13:10:38.864Z,13.67
2018-11-21T13:13:27.121Z,14.17
2018-11-21T13:16:12.791Z,12.70
2018-11-21T13:19:17.894Z,14.33
2018-11-21T13:22:05.006Z,13.90
2018-11-21T13:24:51.490Z,14.03
2018-11-21T13:27:29.954Z,14.03
2018-11-21T13:30:28.912Z,14.50
2018-11-21T13:33:16.081Z,16.47
2018-11-21T13:35:51.549Z,14.20
2018-11-21T13:38:42.112Z,13.93
2018-11-21T13:41:17.291Z,14.00
2018-11-21T13:44:07.241Z,14.37
2018-11-21T13:46:53.019Z,13.53
2018-11-21T13:49:32.508Z,13.87
2018-11-21T13:52:19.624Z,13.80
2018-11-21T13:54:55.315Z,13.80
2018-11-21T13:57:23.291Z,12.97
2018-11-21T13:59:51.253Z,12.80
2018-11-21T14:02:19.129Z,13.70
2018-11-21T14:04:47.054Z,12.33
2018-11-21T14:07:15.288Z,12.80
2018-11-21T14:09:43.197Z,13.73
2018-11-21T14:12:11.146Z,13.40
2018-11-21T14:14:39.098Z,13.73
2018-11-21T14:17:07.141Z,13.30
2018-11-21T14:19:35.089Z,14.53
2018-11-21T14:22:03.004Z,13.77
2018-11-21T14:24:31.086Z,13.00
2018-11-21T14:26:59.235Z,12.73
2018-11-21T14:29:27.215Z,13.70
2018-11-21T14:31:55.455Z,13.20
2018-11-21T14:34:24.184Z,13.13
2018-11-21T14:36:52.456Z,13.60
2018-11-21T14:39:20.396Z,14.47
2018-11-21T14:41:48.882Z,14.67
2018-11-21T14:44:16.833Z,14.30
2018-11-21T14:46:47.020Z,14.53
2018-11-21T14:49:14.950Z,13.67
2018-11-21T14:51:43.165Z,13.93
2018-11-21T14:54:11.134Z,15.17
2018-11-21T14:56:39.036Z,13.83
2018-11-21T14:59:06.988Z,14.33
2018-11-21T15:01:34.988Z,14.23
2018-11-21T15:04:02.883Z,13.23
2018-11-21T15:06:30.794Z,14.60
2018-11-21T15:08:58.725Z,14.00
2018-11-21T15:11:31.301Z,14.10
2018-11-21T15:13:59.210Z,13.70
2018-11-21T15:16:27.109Z,14.33
2018-11-21T15:18:55.408Z,14.70
2018-11-21T15:21:23.320Z,14.73
2018-11-21T15:23:51.247Z,14.40
2018-11-21T15:26:19.185Z,14.13
2018-11-21T15:28:47.521Z,14.40
2018-11-21T15:31:15.422Z,14.57
2018-11-21T15:33:43.736Z,14.37
2018-11-21T15:36:11.661Z,14.53
2018-11-21T15:38:39.606Z,14.93
2018-11-21T15:41:07.598Z,13.80
2018-11-21T15:43:35.527Z,14.87
2018-11-21T15:46:03.507Z,15.10
2018-11-21T15:48:31.820Z,15.10
2018-11-21T15:50:59.803Z,14.50
2018-11-21T15:53:27.721Z,13.73
2018-11-21T15:55:55.985Z,13.97
2018-11-21T15:58:23.937Z,14.20
2018-11-21T16:00:52.103Z,13.83
2018-11-21T16:03:20.042Z,13.40
2018-11-21T16:05:47.957Z,13.60
2018-11-21T16:08:16.239Z,14.77
2018-11-21T16:10:45.550Z,13.97
2018-11-21T16:13:13.511Z,13.20
2018-11-21T16:15:46.335Z,14.03
2018-11-21T16:18:14.773Z,13.27
2018-11-21T16:20:42.984Z,12.40
2018-11-21T16:23:10.917Z,13.20
2018-11-21T16:25:38.830Z,12.90
2018-11-21T16:28:06.829Z,13.10
2018-11-21T16:30:34.755Z,13.23
2018-11-21T16:33:02.942Z,13.00
2018-11-21T16:35:30.879Z,13.57
2018-11-21T16:37:58.790Z,13.07
2018-11-21T16:40:28.425Z,12.97
2018-11-21T16:42:57.535Z,11.90
2018-11-21T16:45:27.396Z,13.77
2018-11-21T16:47:55.339Z,12.93
2018-11-21T16:50:23.322Z,19.03
2018-11-21T16:52:51.370Z,13.50
2018-11-21T16:55:21.012Z,13.73
2018-11-21T16:57:49.341Z,12.63
2018-11-21T17:00:19.101Z,13.33
2018-11-21T17:02:47.129Z,13.83
2018-11-21T17:05:16.554Z,13.27
2018-11-21T17:07:44.788Z,13.37
2018-11-21T17:10:14.739Z,12.57
2018-11-21T17:12:43.211Z,11.73
2018-11-21T17:15:13.347Z,14.57
2018-11-21T17:17:41.534Z,14.07
2018-11-21T17:20:12.539Z,13.47
2018-11-21T17:22:40.706Z,13.90
2018-11-21T17:25:11.448Z,14.63
2018-11-21T17:27:39.376Z,14.03
2018-11-21T17:30:09.553Z,14.27
2018-11-21T17:32:37.461Z,13.03
2018-11-21T17:35:06.345Z,13.63
2018-11-21T17:37:34.256Z,14.20
2018-11-21T17:40:02.208Z,14.07
2018-11-21T17:42:30.129Z,14.67
2018-11-21T17:44:58.094Z,14.80
2018-11-21T17:47:26.029Z,15.23
2018-11-21T17:49:54.029Z,14.23
2018-11-21T17:52:21.933Z,16.07
2018-11-21T17:54:49.854Z,14.83
2018-11-21T17:57:17.778Z,14.90
2018-11-21T17:59:46.035Z,14.90
2018-11-21T18:02:13.974Z,14.70
2018-11-21T18:04:41.942Z,14.73
2018-11-21T18:07:09.889Z,14.97
2018-11-21T18:09:37.827Z,14.70
2018-11-21T18:12:05.837Z,14.57
2018-11-21T18:14:34.047Z,15.43
2018-11-21T18:17:01.998Z,15.57
2018-11-21T18:19:29.939Z,15.80
2018-11-21T18:21:57.982Z,13.40
2018-11-21T18:24:25.928Z,14.53
2018-11-21T18:26:54.282Z,13.30
2018-11-21T18:29:22.217Z,14.67
2018-11-21T18:31:50.145Z,14.20
2018-11-21T18:34:18.702Z,15.73
2018-11-21T18:36:46.928Z,15.57
2018-11-21T18:39:14.905Z,15.23
2018-11-21T18:41:42.809Z,14.03
2018-11-21T18:44:10.939Z,15.10
2018-11-21T18:46:38.917Z,15.50
2018-11-21T18:49:06.889Z,15.50
2018-11-21T18:51:34.827Z,14.63
2018-11-21T18:54:02.760Z,16.13
2018-11-21T18:56:34.121Z,15.30
2018-11-21T18:59:06.493Z,13.73
2018-11-21T19:01:34.771Z,15.20
2018-11-21T19:04:02.753Z,14.93
2018-11-21T19:06:30.751Z,14.07
2018-11-21T19:08:58.652Z,13.53
2018-11-21T19:11:26.557Z,13.77
2018-11-21T19:13:54.513Z,14.57
2018-11-21T19:16:22.741Z,13.37
2018-11-21T19:18:50.755Z,13.20
2018-11-21T19:21:18.684Z,13.90
2018-11-21T19:23:46.936Z,12.60
2018-11-21T19:26:15.244Z,12.80
2018-11-21T19:28:43.148Z,12.83
2018-11-21T19:31:11.468Z,11.93
2018-11-21T19:33:39.424Z,12.83
2018-11-21T19:36:07.734Z,13.57
2018-11-21T19:38:35.664Z,12.00
2018-11-21T19:41:04.788Z,11.47
2018-11-21T19:43:32.706Z,11.87
2018-11-21T19:46:00.648Z,10.67
2018-11-21T19:48:28.674Z,10.67
2018-11-21T19:50:56.851Z,11.00
2018-11-21T19:53:25.238Z,11.37
2018-11-21T19:55:53.185Z,10.97
2018-11-21T19:58:21.098Z,11.80
2018-11-21T20:00:49.032Z,10.03
2018-11-21T20:03:16.989Z,11.87
2018-11-21T20:05:46.101Z,10.27
2018-11-21T20:08:14.008Z,10.00
2018-11-21T20:10:42.129Z,11.00
2018-11-21T20:13:10.152Z,11.10
2018-11-21T20:15:38.400Z,9.80
2018-11-21T20:18:06.374Z,10.43
2018-11-21T20:20:34.992Z,10.40
2018-11-21T20:23:06.527Z,9.40
2018-11-21T20:25:31.311Z,9.30
2018-11-21T20:27:59.222Z,8.67
2018-11-21T20:30:31.880Z,8.83
2018-11-21T20:32:59.855Z,9.03
2018-11-21T20:35:28.056Z,9.33
2018-11-21T20:37:56.026Z,8.10
2018-11-21T20:40:25.707Z,8.50
2018-11-21T20:42:53.992Z,8.77
2018-11-21T20:45:23.573Z,9.23
2018-11-21T20:47:52.911Z,9.07
2018-11-21T20:50:20.894Z,8.70
2018-11-21T20:52:49.224Z,9.37
2018-11-21T20:55:18.227Z,9.07
2018-11-21T20:57:46.259Z,9.10
2018-11-21T21:00:15.919Z,8.97
2018-11-21T21:02:43.830Z,8.97
2018-11-21T21:05:12.967Z,9.40
2018-11-21T21:07:41.631Z,9.17
2018-11-21T21:10:11.561Z,8.97
2018-11-21T21:12:39.916Z,9.77
2018-11-21T21:15:09.476Z,9.50
2018-11-21T21:17:37.552Z,9.20
2018-11-21T21:20:08.567Z,9.80
2018-11-21T21:22:36.883Z,10.43
2018-11-21T21:25:06.657Z,10.20
2018-11-21T21:27:34.943Z,10.00
2018-11-21T21:30:03.002Z,10.00
2018-11-21T21:32:30.939Z,9.70
2018-11-21T21:34:58.985Z,9.00
2018-11-21T21:37:27.220Z,9.80
2018-11-21T21:39:55.590Z,9.40
2018-11-21T21:42:23.545Z,10.07
2018-11-21T21:44:52.175Z,9.90
2018-11-21T21:47:20.077Z,9.93
2018-11-21T21:49:48.360Z,10.07
2018-11-21T21:52:16.287Z,9.47
2018-11-21T21:54:44.566Z,9.40
2018-11-21T21:57:12.525Z,9.80
2018-11-21T21:59:41.098Z,9.90
2018-11-21T22:02:10.149Z,9.97
2018-11-21T22:04:38.394Z,10.27
2018-11-21T22:07:07.965Z,10.07
2018-11-21T22:09:35.902Z,9.80
2018-11-21T22:12:03.996Z,9.83
2018-11-21T22:14:32.238Z,9.93
2018-11-21T22:17:00.152Z,9.97
2018-11-21T22:19:28.083Z,10.00
2018-11-21T22:21:56.315Z,10.03
2018-11-21T22:24:24.225Z,10.17
2018-11-21T22:26:52.191Z,10.43
2018-11-21T22:29:20.432Z,10.57
2018-11-21T22:31:48.370Z,10.27
2018-11-21T22:34:16.300Z,9.90
2018-11-21T22:36:44.966Z,9.60
2018-11-21T22:39:13.726Z,9.57
2018-11-21T22:41:41.940Z,10.10
2018-11-21T22:44:10.247Z,10.30
2018-11-21T22:46:38.156Z,10.20
2018-11-21T22:49:06.061Z,11.67
2018-11-21T22:51:34.084Z,11.00
2018-11-21T22:54:02.057Z,11.27
2018-11-21T22:56:30.000Z,11.50
2018-11-21T22:58:57.961Z,11.20
2018-11-21T23:01:30.493Z,9.83
2018-11-21T23:03:58.431Z,10.17
2018-11-21T23:06:26.368Z,10.87
2018-11-21T23:08:54.642Z,10.73
2018-11-21T23:11:22.579Z,10.67
2018-11-21T23:13:50.845Z,11.50
2018-11-21T23:16:19.103Z,10.60
2018-11-21T23:18:47.031Z,10.23
2018-11-21T23:21:15.332Z,10.33
2018-11-21T23:23:43.226Z,10.63
2018-11-21T23:26:11.175Z,9.93
2018-11-21T23:28:39.122Z,10.50
2018-11-21T23:31:07.320Z,11.23
2018-11-21T23:33:35.242Z,11.10
2018-11-21T23:36:03.535Z,11.33
2018-11-21T23:38:31.833Z,11.57
2018-11-21T23:40:59.805Z,10.70
2018-11-21T23:43:27.709Z,11.07
2018-11-21T23:45:55.652Z,11.30
2018-11-21T23:48:23.586Z,11.90
2018-11-21T23:50:51.506Z,11.63
2018-11-21T23:53:19.416Z,11.30
2018-11-21T23:55:47.633Z,12.30
2018-11-21T23:58:15.551Z,11.63
